createdAt,value
2022-11-04T00:00:31.561Z,25.77
2022-11-04T00:03:04.090Z,25.13
2022-11-04T00:05:33.771Z,24.83
2022-11-04T00:08:20.422Z,26.60
2022-11-04T00:11:07.246Z,26.02
2022-11-04T00:13:36.286Z,24.85
2022-11-04T00:16:23.820Z,26.55
2022-11-04T00:18:54.645Z,25.70
2022-11-04T00:21:41.736Z,26.45
2022-11-04T00:24:29.929Z,24.45
2022-11-04T00:27:16.825Z,24.95
2022-11-04T00:29:46.149Z,26.75
2022-11-04T00:32:47.508Z,25.58
2022-11-04T00:35:18.316Z,25.52
2022-11-04T00:37:47.803Z,27.67
2022-11-04T00:40:18.308Z,25.40
2022-11-04T00:42:47.832Z,25.23
2022-11-04T00:45:17.047Z,27.35
2022-11-04T00:47:46.563Z,27.00
2022-11-04T00:50:17.212Z,25.63
2022-11-04T00:52:46.329Z,25.33
2022-11-04T00:55:15.821Z,26.90
2022-11-04T00:57:45.005Z,25.02
2022-11-04T01:00:16.345Z,25.55
2022-11-04T01:02:45.615Z,23.55
2022-11-04T01:05:16.449Z,25.67
2022-11-04T01:07:45.664Z,26.50
2022-11-04T01:10:15.085Z,25.67
2022-11-04T01:12:44.175Z,25.08
2022-11-04T01:15:13.676Z,23.98
2022-11-04T01:17:42.871Z,24.05
2022-11-04T01:20:13.971Z,22.55
2022-11-04T01:22:44.774Z,24.73
2022-11-04T01:25:14.171Z,24.35
2022-11-04T01:27:43.283Z,24.55
2022-11-04T01:30:13.829Z,24.95
2022-11-04T01:32:43.276Z,23.95
2022-11-04T01:35:12.683Z,21.55
2022-11-04T01:37:43.090Z,22.67
2022-11-04T01:40:13.027Z,22.15
2022-11-04T01:42:42.069Z,22.67
2022-11-04T01:45:15.551Z,23.13
2022-11-04T01:47:50.722Z,23.80
2022-11-04T01:50:25.107Z,22.35
2022-11-04T01:53:00.027Z,21.08
2022-11-04T01:55:33.037Z,21.98
2022-11-04T01:58:07.344Z,20.65
2022-11-04T02:00:39.057Z,21.90
2022-11-04T02:03:12.750Z,22.63
2022-11-04T02:05:42.994Z,23.88
2022-11-04T02:08:15.580Z,21.33
2022-11-04T02:10:53.683Z,20.77
2022-11-04T02:13:21.985Z,21.30
2022-11-04T02:15:59.674Z,22.13
2022-11-04T02:18:52.485Z,21.27
2022-11-04T02:21:57.086Z,21.17
2022-11-04T02:25:02.867Z,20.95
2022-11-04T02:27:46.007Z,21.23
2022-11-04T02:30:19.126Z,21.70
2022-11-04T02:33:19.015Z,21.83
2022-11-04T02:36:00.114Z,20.88
2022-11-04T02:38:38.143Z,21.00
2022-11-04T02:41:17.781Z,20.10
2022-11-04T02:44:07.177Z,20.42
2022-11-04T02:46:41.449Z,20.67
2022-11-04T02:49:15.820Z,21.88
2022-11-04T02:51:50.271Z,19.50
2022-11-04T02:54:25.447Z,20.20
2022-11-04T02:56:58.648Z,18.92
2022-11-04T02:59:34.030Z,19.75
2022-11-04T03:02:09.543Z,18.88
2022-11-04T03:04:43.554Z,18.17
2022-11-04T03:07:16.408Z,19.30
2022-11-04T03:09:51.160Z,18.67
2022-11-04T03:12:26.548Z,20.33
2022-11-04T03:15:03.128Z,18.55
2022-11-04T03:17:38.768Z,18.58
2022-11-04T03:20:14.523Z,19.33
2022-11-04T03:22:43.790Z,18.15
2022-11-04T03:25:13.531Z,17.42
2022-11-04T03:27:49.723Z,18.40
2022-11-04T03:35:34.020Z,17.08
2022-11-04T03:38:04.196Z,18.17
2022-11-04T03:40:33.412Z,18.30
2022-11-04T03:43:10.212Z,17.33
2022-11-04T03:45:40.424Z,17.83
2022-11-04T03:48:10.162Z,18.98
2022-11-04T03:50:44.649Z,19.20
2022-11-04T03:53:15.567Z,18.33
2022-11-04T03:55:57.801Z,18.08
2022-11-04T03:58:40.120Z,17.25
2022-11-04T04:01:20.967Z,18.27
2022-11-04T04:03:57.721Z,17.58
2022-11-04T04:06:32.600Z,17.27
2022-11-04T04:09:09.657Z,17.50
2022-11-04T04:11:46.023Z,18.50
2022-11-04T04:14:39.231Z,17.90
2022-11-04T04:17:17.509Z,17.95
2022-11-04T04:19:53.446Z,18.40
2022-11-04T04:22:28.375Z,18.13
2022-11-04T04:25:20.510Z,16.85
2022-11-04T04:27:53.041Z,17.15
2022-11-04T04:30:22.577Z,17.60
2022-11-04T04:32:55.909Z,17.30
2022-11-04T04:35:44.703Z,17.92
2022-11-04T04:38:39.884Z,17.05
2022-11-04T04:41:30.546Z,17.80
2022-11-04T04:44:23.501Z,15.70
2022-11-04T04:46:55.565Z,16.50
2022-11-04T04:49:24.668Z,16.35
2022-11-04T04:51:54.010Z,17.45
2022-11-04T04:54:24.472Z,16.30
2022-11-04T04:56:53.822Z,16.63
2022-11-04T04:59:22.918Z,16.00
2022-11-04T05:01:52.344Z,16.95
2022-11-04T05:04:21.539Z,15.70
2022-11-04T05:06:51.064Z,15.65
2022-11-04T05:09:20.143Z,16.42
2022-11-04T05:11:50.934Z,16.55
2022-11-04T05:14:20.045Z,15.85
2022-11-04T05:16:49.457Z,15.45
2022-11-04T05:19:18.472Z,15.52
2022-11-04T05:21:47.891Z,15.32
2022-11-04T05:24:17.046Z,14.18
2022-11-04T05:26:46.417Z,15.57
2022-11-04T05:29:17.023Z,16.35
2022-11-04T05:31:46.560Z,16.23
2022-11-04T05:34:16.289Z,15.70
2022-11-04T05:36:45.731Z,14.00
2022-11-04T05:39:15.387Z,14.73
2022-11-04T05:41:44.762Z,16.30
2022-11-04T05:44:15.918Z,16.90
2022-11-04T05:46:45.292Z,15.98
2022-11-04T05:49:14.543Z,16.73
2022-11-04T05:51:44.575Z,16.42
2022-11-04T05:54:13.648Z,16.15
2022-11-04T05:56:43.030Z,16.38
2022-11-04T05:59:12.025Z,15.80
2022-11-04T06:01:44.153Z,15.25
2022-11-04T06:04:17.661Z,15.50
2022-11-04T06:06:47.344Z,15.90
2022-11-04T06:09:16.525Z,16.30
2022-11-04T06:11:46.414Z,15.18
2022-11-04T06:14:18.758Z,14.95
2022-11-04T06:16:49.820Z,16.48
2022-11-04T06:19:19.086Z,15.82
2022-11-04T06:21:48.371Z,16.80
2022-11-04T06:24:17.401Z,18.05
2022-11-04T06:26:47.146Z,17.70
2022-11-04T06:29:16.285Z,18.17
2022-11-04T06:31:45.821Z,16.65
2022-11-04T06:34:16.585Z,16.00
2022-11-04T06:36:46.237Z,16.73
2022-11-04T06:39:15.327Z,16.00
2022-11-04T06:41:47.463Z,16.45
2022-11-04T06:44:18.178Z,17.83
2022-11-04T06:46:47.624Z,18.23
2022-11-04T06:49:20.414Z,17.80
2022-11-04T06:51:50.038Z,19.50
2022-11-04T06:54:19.909Z,16.23
2022-11-04T06:56:49.761Z,16.92
2022-11-04T06:59:21.000Z,15.35
2022-11-04T07:01:52.324Z,15.88
2022-11-04T07:04:23.009Z,15.35
2022-11-04T07:06:52.599Z,15.48
2022-11-04T07:09:21.734Z,13.85
2022-11-04T07:11:51.294Z,13.43
2022-11-04T07:14:20.389Z,12.98
2022-11-04T07:16:52.346Z,13.80
2022-11-04T07:19:22.793Z,14.48
2022-11-04T07:21:52.362Z,12.90
2022-11-04T07:24:21.435Z,15.75
2022-11-04T07:26:50.751Z,15.48
2022-11-04T07:29:20.179Z,16.50
2022-11-04T07:31:49.709Z,15.15
2022-11-04T07:34:18.887Z,15.63
2022-11-04T07:36:49.703Z,16.02
2022-11-04T07:39:18.796Z,16.77
2022-11-04T07:41:48.162Z,16.10
2022-11-04T07:44:17.224Z,17.42
2022-11-04T07:46:46.778Z,18.90
2022-11-04T07:49:15.862Z,18.08
2022-11-04T07:51:45.333Z,17.02
2022-11-04T07:54:15.873Z,17.42
2022-11-04T07:56:45.285Z,17.67
2022-11-04T07:59:14.373Z,17.50
2022-11-04T08:01:43.830Z,18.80
2022-11-04T08:04:12.970Z,18.75
2022-11-04T08:06:42.619Z,18.60
2022-11-04T08:09:11.667Z,17.60
2022-11-04T08:11:42.617Z,16.95
2022-11-04T08:14:15.726Z,16.02
2022-11-04T08:16:45.813Z,15.70
2022-11-04T08:19:15.021Z,14.48
2022-11-04T08:21:44.518Z,15.07
2022-11-04T08:24:13.712Z,14.63
2022-11-04T08:26:46.358Z,14.50
2022-11-04T08:29:15.661Z,15.95
2022-11-04T08:31:45.090Z,14.77
2022-11-04T08:34:14.783Z,15.50
2022-11-04T08:36:44.177Z,14.57
2022-11-04T08:39:14.223Z,15.75
2022-11-04T08:41:45.668Z,12.15
2022-11-04T08:44:15.286Z,12.73
2022-11-04T08:46:46.289Z,14.48
2022-11-04T08:49:20.676Z,13.50
2022-11-04T08:51:56.727Z,13.52
2022-11-04T08:54:26.418Z,12.88
2022-11-04T08:56:57.165Z,14.52
2022-11-04T08:59:26.331Z,12.45
2022-11-04T09:01:55.958Z,14.52
2022-11-04T09:04:25.133Z,18.88
2022-11-04T09:06:56.397Z,15.45
2022-11-04T09:09:25.763Z,18.48
2022-11-04T09:11:57.317Z,12.38
2022-11-04T09:14:26.557Z,11.85
2022-11-04T09:16:57.963Z,8.55
2022-11-04T09:19:27.277Z,7.10
2022-11-04T09:21:56.759Z,6.78
2022-11-04T09:24:26.158Z,6.57
2022-11-04T09:26:56.874Z,7.60
2022-11-04T09:29:25.921Z,8.30
2022-11-04T09:31:56.423Z,7.10
2022-11-04T09:34:25.530Z,7.82
2022-11-04T09:36:57.348Z,6.97
2022-11-04T09:39:27.533Z,7.53
2022-11-04T09:42:23.053Z,6.90
2022-11-04T09:45:20.762Z,6.88
2022-11-04T09:47:49.384Z,7.18
2022-11-04T09:50:24.313Z,7.70
2022-11-04T09:52:58.224Z,7.20
2022-11-04T09:55:33.697Z,7.53
2022-11-04T09:58:05.075Z,6.80
2022-11-04T10:00:39.234Z,6.72
2022-11-04T10:03:21.958Z,7.47
2022-11-04T10:06:05.555Z,6.38
2022-11-04T10:08:57.411Z,7.45
2022-11-04T10:11:34.716Z,7.13
2022-11-04T10:14:35.464Z,7.10
2022-11-04T10:17:19.829Z,7.13
2022-11-04T10:20:04.663Z,7.40
2022-11-04T10:22:39.558Z,6.80
2022-11-04T10:25:15.637Z,6.57
2022-11-04T10:27:48.255Z,7.28
2022-11-04T10:30:22.728Z,6.22
2022-11-04T10:33:00.715Z,6.33
2022-11-04T10:35:36.078Z,6.85
2022-11-04T10:38:17.515Z,6.55
2022-11-04T10:40:50.468Z,7.40
2022-11-04T10:43:27.752Z,6.97
2022-11-04T10:46:15.586Z,6.72
2022-11-04T10:48:51.107Z,6.60
2022-11-04T10:51:22.379Z,6.75
2022-11-04T10:53:55.956Z,8.02
2022-11-04T10:56:35.878Z,7.15
2022-11-04T10:59:20.798Z,7.57
2022-11-04T11:01:53.955Z,7.55
2022-11-04T11:04:30.404Z,6.25
2022-11-04T11:07:02.037Z,7.22
2022-11-04T11:09:33.457Z,6.90
2022-11-04T11:12:29.493Z,7.75
2022-11-04T11:14:55.862Z,7.35
2022-11-04T11:17:37.649Z,7.50
2022-11-04T11:20:22.528Z,6.95
2022-11-04T11:22:54.231Z,6.55
2022-11-04T11:25:29.115Z,6.15
2022-11-04T11:28:00.503Z,6.65
2022-11-04T11:30:32.711Z,6.78
2022-11-04T11:33:08.344Z,6.90
2022-11-04T11:35:42.565Z,7.03
2022-11-04T11:38:22.458Z,7.65
2022-11-04T11:41:23.224Z,7.38
2022-11-04T11:43:47.494Z,8.00
2022-11-04T11:46:24.171Z,7.40
2022-11-04T11:49:01.067Z,7.53
2022-11-04T11:51:33.186Z,10.43
2022-11-04T11:54:33.656Z,7.38
2022-11-04T11:57:14.205Z,7.40
2022-11-04T12:02:48.921Z,7.43
2022-11-04T12:11:29.288Z,7.50
2022-11-04T12:14:03.352Z,7.18
2022-11-04T12:16:41.866Z,7.15
2022-11-04T12:19:32.294Z,7.30
2022-11-04T12:22:10.989Z,7.35
2022-11-04T12:24:48.169Z,7.68
2022-11-04T12:27:30.465Z,7.65
2022-11-04T12:30:09.918Z,7.47
2022-11-04T12:32:53.345Z,7.05
2022-11-04T12:35:34.315Z,7.95
2022-11-04T12:38:20.412Z,8.48
2022-11-04T12:43:59.889Z,8.15
2022-11-04T12:46:38.507Z,11.35
2022-11-04T12:49:46.415Z,12.70
2022-11-04T12:52:30.676Z,8.57
2022-11-04T12:55:19.492Z,9.00
2022-11-04T12:57:54.103Z,10.82
2022-11-04T13:00:25.374Z,6.95
2022-11-04T13:03:02.271Z,7.28
2022-11-04T13:05:41.197Z,7.78
2022-11-04T13:08:20.007Z,6.53
2022-11-04T13:10:58.469Z,7.28
2022-11-04T13:13:33.404Z,6.82
2022-11-04T13:16:07.566Z,6.70
2022-11-04T13:18:41.095Z,6.30
2022-11-04T13:21:14.954Z,6.70
2022-11-04T13:23:51.872Z,7.05
2022-11-04T13:26:22.647Z,7.97
2022-11-04T13:29:08.653Z,8.07
2022-11-04T13:31:51.575Z,8.15
2022-11-04T13:34:35.760Z,7.72
2022-11-04T13:37:16.063Z,9.20
2022-11-04T13:39:50.038Z,7.90
2022-11-04T13:43:21.183Z,8.43
2022-11-04T13:45:55.168Z,8.77
2022-11-04T13:48:27.867Z,8.20
2022-11-04T13:51:01.403Z,7.78
2022-11-04T13:53:46.875Z,8.88
2022-11-04T13:56:34.947Z,7.80
2022-11-04T13:59:19.321Z,7.85
2022-11-04T14:01:50.755Z,8.45
2022-11-04T14:04:28.303Z,8.57
2022-11-04T14:07:00.046Z,9.88
2022-11-04T14:09:53.477Z,8.45
2022-11-04T14:12:40.590Z,10.07
2022-11-04T14:15:41.943Z,8.00
2022-11-04T14:18:29.690Z,9.13
2022-11-04T14:21:10.603Z,8.07
2022-11-04T14:23:41.753Z,8.23
2022-11-04T14:26:13.958Z,9.07
2022-11-04T14:28:46.668Z,9.52
2022-11-04T14:31:35.326Z,10.75
2022-11-04T14:34:07.258Z,9.43
2022-11-04T14:36:40.087Z,10.60
2022-11-04T14:39:25.329Z,10.00
2022-11-04T14:41:57.984Z,9.52
2022-11-04T14:44:36.539Z,10.65
2022-11-04T14:47:18.717Z,10.00
2022-11-04T14:49:52.104Z,10.43
2022-11-04T14:52:25.042Z,10.52
2022-11-04T14:54:58.698Z,10.32
2022-11-04T14:57:31.249Z,11.20
2022-11-04T15:00:00.286Z,11.82
2022-11-04T15:02:33.967Z,10.40
2022-11-04T15:05:04.870Z,11.02
2022-11-04T15:07:37.592Z,10.52
2022-11-04T15:10:21.599Z,12.18
2022-11-04T15:12:55.265Z,11.00
2022-11-04T15:15:31.516Z,18.20
2022-11-04T15:18:08.290Z,18.58
2022-11-04T15:20:46.046Z,17.80
2022-11-04T15:23:19.091Z,18.60
2022-11-04T15:25:50.232Z,15.15
2022-11-04T15:28:22.856Z,16.65
2022-11-04T15:31:04.417Z,16.05
2022-11-04T15:33:38.806Z,15.45
2022-11-04T15:36:14.018Z,13.77
2022-11-04T15:38:48.544Z,12.15
2022-11-04T15:41:38.690Z,11.98
2022-11-04T15:44:17.402Z,12.05
2022-11-04T15:46:52.015Z,14.82
2022-11-04T15:49:27.986Z,17.10
2022-11-04T15:52:01.937Z,16.88
2022-11-04T15:54:34.548Z,21.80
2022-11-04T15:57:15.686Z,21.50
2022-11-04T15:59:51.618Z,20.02
2022-11-04T16:05:08.784Z,16.80
2022-11-04T16:07:40.957Z,15.18
2022-11-04T16:10:30.239Z,16.30
2022-11-04T16:13:01.186Z,14.10
2022-11-04T16:15:36.262Z,14.02
2022-11-04T16:18:07.443Z,12.50
2022-11-04T16:20:37.633Z,13.98
2022-11-04T16:23:08.778Z,13.18
2022-11-04T16:25:38.649Z,13.75
2022-11-04T16:28:08.547Z,12.45
2022-11-04T16:30:37.942Z,13.02
2022-11-04T16:33:12.283Z,11.57
2022-11-04T16:35:43.194Z,11.98
2022-11-04T16:38:13.880Z,12.70
2022-11-04T16:40:44.918Z,12.30
2022-11-04T16:43:14.945Z,15.15
2022-11-04T16:45:53.313Z,16.17
2022-11-04T16:48:24.815Z,14.75
2022-11-04T16:50:54.840Z,13.75
2022-11-04T16:53:25.397Z,14.27
2022-11-04T16:55:56.798Z,15.63
2022-11-04T16:58:26.046Z,14.20
2022-11-04T17:00:56.471Z,18.70
2022-11-04T17:03:27.852Z,15.07
2022-11-04T17:05:58.656Z,20.08
2022-11-04T17:08:29.204Z,14.38
2022-11-04T17:10:58.680Z,17.30
2022-11-04T17:13:30.865Z,14.05
2022-11-04T17:16:05.274Z,17.83
2022-11-04T17:18:35.495Z,29.85
2022-11-04T17:21:08.246Z,16.92
2022-11-04T17:23:38.906Z,19.77
2022-11-04T17:26:08.264Z,18.98
2022-11-04T17:28:37.695Z,19.15
2022-11-04T17:31:08.061Z,16.88
2022-11-04T17:33:37.177Z,18.55
2022-11-04T17:36:07.926Z,18.48
2022-11-04T17:38:38.738Z,17.92
2022-11-04T17:41:25.407Z,20.70
2022-11-04T17:44:03.557Z,14.93
2022-11-04T17:46:38.859Z,13.60
2022-11-04T17:49:12.749Z,10.73
2022-11-04T17:51:43.521Z,11.93
2022-11-04T17:54:14.177Z,11.98
2022-11-04T17:56:44.384Z,13.32
2022-11-04T17:59:15.072Z,11.82
2022-11-04T18:01:45.237Z,13.15
2022-11-04T18:04:16.729Z,12.93
2022-11-04T18:06:46.930Z,14.27
2022-11-04T18:09:18.426Z,15.30
2022-11-04T18:12:06.465Z,16.05
2022-11-04T18:14:35.566Z,13.85
2022-11-04T18:17:05.810Z,16.38
2022-11-04T18:19:34.915Z,16.40
2022-11-04T18:22:04.605Z,15.52
2022-11-04T18:24:35.455Z,18.92
2022-11-04T18:27:04.904Z,15.93
2022-11-04T18:29:34.341Z,16.75
2022-11-04T18:32:03.773Z,13.18
2022-11-04T18:34:33.146Z,16.83
2022-11-04T18:37:02.973Z,15.88
2022-11-04T18:39:32.353Z,20.13
2022-11-04T18:42:03.266Z,18.33
2022-11-04T18:44:32.506Z,12.50
2022-11-04T18:47:01.893Z,13.60
2022-11-04T18:49:31.292Z,12.10
2022-11-04T18:52:00.799Z,11.68
2022-11-04T18:54:30.075Z,11.15
2022-11-04T18:56:59.549Z,12.77
2022-11-04T18:59:30.093Z,12.52
2022-11-04T19:01:59.610Z,12.48
2022-11-04T19:04:28.946Z,11.80
2022-11-04T19:06:58.779Z,12.20
2022-11-04T19:12:34.612Z,11.25
2022-11-04T19:15:06.424Z,15.98
2022-11-04T19:17:37.914Z,19.02
2022-11-04T19:20:12.077Z,13.88
2022-11-04T19:22:42.372Z,10.65
2022-11-04T19:25:11.970Z,10.23
2022-11-04T19:27:41.441Z,9.93
2022-11-04T19:30:13.190Z,12.57
2022-11-04T19:32:43.944Z,13.63
2022-11-04T19:35:13.775Z,10.77
2022-11-04T19:37:43.185Z,9.65
2022-11-04T19:40:13.801Z,10.50
2022-11-04T19:43:00.426Z,9.02
2022-11-04T19:45:30.846Z,9.38
2022-11-04T19:48:00.442Z,9.10
2022-11-04T19:50:29.513Z,10.10
2022-11-04T19:52:59.491Z,9.85
2022-11-04T19:55:29.930Z,10.27
2022-11-04T19:57:59.347Z,9.98
2022-11-04T20:00:30.029Z,9.27
2022-11-04T20:03:00.258Z,9.55
2022-11-04T20:05:29.358Z,9.35
2022-11-04T20:08:04.854Z,9.40
2022-11-04T20:10:38.187Z,10.38
2022-11-04T20:13:25.363Z,9.32
2022-11-04T20:15:55.799Z,9.70
2022-11-04T20:18:25.160Z,9.88
2022-11-04T20:20:54.303Z,10.18
2022-11-04T20:23:23.803Z,10.57
2022-11-04T20:25:53.109Z,10.07
2022-11-04T20:28:22.530Z,11.13
2022-11-04T20:30:51.646Z,10.63
2022-11-04T20:33:22.472Z,10.07
2022-11-04T20:35:52.202Z,10.30
2022-11-04T20:38:21.622Z,11.10
2022-11-04T20:40:50.731Z,10.13
2022-11-04T20:43:20.153Z,10.18
2022-11-04T20:45:52.334Z,9.73
2022-11-04T20:48:23.384Z,10.20
2022-11-04T20:50:52.887Z,9.20
2022-11-04T20:53:22.249Z,10.07
2022-11-04T20:55:51.371Z,8.88
2022-11-04T20:58:20.753Z,9.55
2022-11-04T21:00:49.716Z,9.27
2022-11-04T21:03:19.089Z,8.25
2022-11-04T21:05:49.697Z,9.63
2022-11-04T21:08:19.222Z,8.32
2022-11-04T21:10:50.674Z,9.30
2022-11-04T21:13:20.505Z,8.38
2022-11-04T21:15:53.525Z,8.75
2022-11-04T21:18:23.590Z,9.60
2022-11-04T21:20:54.721Z,9.60
2022-11-04T21:23:24.496Z,10.07
2022-11-04T21:25:56.307Z,9.40
2022-11-04T21:28:26.525Z,11.00
2022-11-04T21:30:55.986Z,10.57
2022-11-04T21:33:25.352Z,11.18
2022-11-04T21:35:55.781Z,9.50
2022-11-04T21:38:25.055Z,10.27
2022-11-04T21:40:54.278Z,11.70
2022-11-04T21:43:23.651Z,12.13
2022-11-04T21:45:52.756Z,10.00
2022-11-04T21:48:22.405Z,9.30
2022-11-04T21:50:51.436Z,10.55
2022-11-04T21:53:22.246Z,9.88
2022-11-04T21:55:51.269Z,8.07
2022-11-04T21:58:20.919Z,8.73
2022-11-04T22:00:56.854Z,9.32
2022-11-04T22:03:26.841Z,9.48
2022-11-04T22:06:00.597Z,10.10
2022-11-04T22:08:32.507Z,10.05
2022-11-04T22:11:08.341Z,8.77
2022-11-04T22:13:38.496Z,8.43
2022-11-04T22:16:13.272Z,8.20
2022-11-04T22:18:43.134Z,8.32
2022-11-04T22:21:15.202Z,8.45
2022-11-04T22:23:46.658Z,9.05
2022-11-04T22:26:18.192Z,7.68
2022-11-04T22:28:48.368Z,8.38
2022-11-04T22:31:19.293Z,7.72
2022-11-04T22:33:49.410Z,7.35
2022-11-04T22:36:18.861Z,7.60
2022-11-04T22:38:49.711Z,7.93
2022-11-04T22:41:21.137Z,8.20
2022-11-04T22:43:51.133Z,7.70
2022-11-04T22:46:22.327Z,7.88
2022-11-04T22:48:51.682Z,9.18
2022-11-04T22:51:21.146Z,8.18
2022-11-04T22:54:00.021Z,7.57
2022-11-04T22:56:30.571Z,8.75
2022-11-04T22:59:00.491Z,7.72
2022-11-04T23:01:31.551Z,8.13
2022-11-04T23:04:02.829Z,7.55
2022-11-04T23:06:32.303Z,8.75
2022-11-04T23:09:03.449Z,8.20
2022-11-04T23:11:51.462Z,7.50
2022-11-04T23:14:40.283Z,8.38
2022-11-04T23:17:34.194Z,7.20
2022-11-04T23:20:04.882Z,7.05
2022-11-04T23:22:51.282Z,8.45
2022-11-04T23:25:22.481Z,7.60
2022-11-04T23:28:11.144Z,7.97
2022-11-04T23:30:42.343Z,7.18
2022-11-04T23:33:13.469Z,6.80
2022-11-04T23:36:03.997Z,7.05
2022-11-04T23:38:35.341Z,7.38
2022-11-04T23:41:25.485Z,7.25
2022-11-04T23:43:54.618Z,6.43
2022-11-04T23:46:43.542Z,8.07
2022-11-04T23:49:30.568Z,7.05
2022-11-04T23:52:17.447Z,6.97
2022-11-04T23:55:04.128Z,6.80
2022-11-04T23:57:52.424Z,7.57
